createdAt,value
2023-11-15T00:01:03.889Z,19.6
2023-11-15T00:06:07.800Z,19.5
2023-11-15T00:11:08.246Z,19.6
2023-11-15T00:16:12.075Z,19.6
2023-11-15T00:21:15.316Z,19.6
2023-11-15T00:26:18.648Z,19.6
2023-11-15T00:31:21.761Z,19.5
2023-11-15T00:36:24.784Z,19.6
2023-11-15T00:41:27.918Z,19.6
2023-11-15T00:46:28.304Z,19.6
2023-11-15T00:51:32.143Z,19.5
2023-11-15T00:56:32.596Z,19.6
2023-11-15T01:01:36.259Z,19.6
2023-11-15T01:06:39.442Z,19.5
2023-11-15T01:11:42.726Z,19.6
2023-11-15T01:16:45.841Z,19.5
2023-11-15T01:21:49.077Z,19.5
2023-11-15T01:26:49.509Z,19.5
2023-11-15T01:31:50.451Z,19.5
2023-11-15T01:36:54.332Z,19.5
2023-11-15T01:41:53.599Z,19.5
2023-11-15T01:46:57.686Z,19.5
2023-11-15T01:52:00.898Z,19.5
2023-11-15T01:57:04.083Z,19.5
2023-11-15T02:02:07.294Z,19.5
2023-11-15T02:07:10.462Z,19.5
2023-11-15T02:12:10.808Z,19.5
2023-11-15T02:17:14.484Z,19.5
2023-11-15T02:22:17.857Z,19.5
2023-11-15T02:27:21.274Z,19.4
2023-11-15T02:32:24.515Z,19.4
2023-11-15T02:37:27.869Z,19.5
2023-11-15T02:42:31.060Z,19.5
2023-11-15T02:47:31.731Z,19.4
2023-11-15T02:52:32.587Z,19.4
2023-11-15T02:57:33.478Z,19.4
2023-11-15T03:02:37.217Z,19.3
2023-11-15T03:07:37.903Z,19.4
2023-11-15T03:12:41.493Z,19.4
2023-11-15T03:17:44.826Z,19.4
2023-11-15T03:22:45.050Z,19.4
2023-11-15T03:27:48.980Z,19.4
2023-11-15T03:32:52.213Z,19.4
2023-11-15T03:37:52.780Z,19.3
2023-11-15T03:42:56.248Z,19.4
2023-11-15T03:47:59.609Z,19.4
2023-11-15T03:53:02.739Z,19.3
2023-11-15T03:58:03.340Z,19.3
2023-11-15T04:03:07.962Z,19.4
2023-11-15T04:08:08.428Z,19.4
2023-11-15T04:13:11.666Z,19.4
2023-11-15T04:18:14.957Z,19.3
2023-11-15T04:23:18.265Z,19.3
2023-11-15T04:28:18.869Z,19.3
2023-11-15T04:33:22.451Z,19.3
2023-11-15T04:38:25.835Z,19.3
2023-11-15T04:43:26.188Z,19.3
2023-11-15T04:48:30.805Z,19.3
2023-11-15T04:53:29.920Z,19.3
2023-11-15T04:58:33.931Z,19.3
2023-11-15T05:03:41.618Z,19.3
2023-11-15T05:08:44.263Z,19.3
2023-11-15T05:13:44.665Z,19.3
2023-11-15T05:18:48.509Z,19.3
2023-11-15T05:23:52.779Z,19.2
2023-11-15T05:28:55.246Z,19.2
2023-11-15T05:33:58.473Z,19.2
2023-11-15T05:39:02.093Z,19.3
2023-11-15T05:44:05.128Z,19.4
2023-11-15T05:49:08.524Z,19.3
2023-11-15T05:54:11.581Z,19.4
2023-11-15T05:59:12.094Z,19.4
2023-11-15T06:04:15.951Z,19.3
2023-11-15T06:09:20.138Z,19.3
2023-11-15T06:14:23.387Z,19.4
2023-11-15T06:19:26.697Z,19.4
2023-11-15T06:24:30.105Z,19.4
2023-11-15T06:29:30.528Z,19.4
2023-11-15T06:34:34.341Z,19.4
2023-11-15T06:39:34.753Z,19.4
2023-11-15T06:44:35.396Z,19.4
2023-11-15T06:49:36.349Z,19.4
2023-11-15T06:54:40.127Z,19.5
2023-11-15T06:59:02.075Z,19.5
2023-11-15T07:04:01.418Z,19.5
2023-11-15T07:09:05.206Z,19.5
2023-11-15T07:14:08.457Z,19.6
2023-11-15T07:19:08.728Z,19.6
2023-11-15T07:24:12.454Z,19.5
2023-11-15T07:29:15.712Z,19.6
2023-11-15T07:34:18.829Z,19.6
2023-11-15T07:39:22.884Z,19.6
2023-11-15T07:44:26.033Z,19.7
2023-11-15T07:49:25.272Z,19.7
2023-11-15T07:54:29.166Z,19.7
2023-11-15T07:59:32.451Z,19.6
2023-11-15T08:04:35.744Z,19.7
2023-11-15T08:09:36.082Z,19.7
2023-11-15T08:14:39.870Z,19.8
2023-11-15T08:19:43.142Z,19.6
2023-11-15T08:24:43.487Z,19.8
2023-11-15T08:29:47.526Z,19.6
2023-11-15T08:34:47.801Z,19.6
2023-11-15T08:39:48.680Z,19.7
2023-11-15T08:44:49.545Z,19.7
2023-11-15T08:49:53.105Z,19.7
2023-11-15T08:54:56.388Z,19.7
2023-11-15T08:59:59.727Z,19.6
2023-11-15T09:05:03.162Z,19.7
2023-11-15T09:10:06.339Z,19.7
2023-11-15T09:15:09.305Z,19.7
2023-11-15T09:20:12.665Z,19.6
2023-11-15T09:25:15.867Z,19.8
2023-11-15T09:30:19.138Z,19.8
2023-11-15T09:35:19.525Z,19.8
2023-11-15T09:40:20.675Z,19.7
2023-11-15T09:45:21.492Z,19.8
2023-11-15T09:50:22.540Z,19.8
2023-11-15T09:55:26.359Z,19.8
2023-11-15T10:00:26.853Z,19.8
2023-11-15T10:05:30.610Z,19.8
2023-11-15T10:10:31.009Z,19.8
2023-11-15T10:15:30.856Z,19.8
2023-11-15T10:20:31.924Z,19.8
2023-11-15T10:25:36.424Z,19.8
2023-11-15T10:30:37.147Z,19.8
2023-11-15T10:35:38.061Z,19.8
2023-11-15T10:40:41.681Z,19.8
2023-11-15T10:45:45.109Z,19.8
2023-11-15T10:50:48.505Z,19.9
2023-11-15T10:55:48.756Z,19.9
2023-11-15T11:00:52.663Z,19.8
2023-11-15T11:05:57.125Z,19.8
2023-11-15T11:10:56.757Z,19.9
2023-11-15T11:15:57.704Z,19.8
2023-11-15T11:20:57.731Z,19.9
2023-11-15T11:26:01.498Z,19.9
2023-11-15T11:31:01.998Z,19.9
2023-11-15T11:36:05.692Z,19.9
2023-11-15T11:41:06.267Z,19.8
2023-11-15T11:46:07.166Z,19.9
2023-11-15T11:51:08.041Z,19.8
2023-11-15T11:56:09.787Z,19.9
2023-11-15T12:01:13.740Z,19.9
2023-11-15T12:06:16.909Z,19.9
2023-11-15T12:11:18.062Z,19.9
2023-11-15T12:16:17.811Z,19.9
2023-11-15T12:21:19.057Z,19.9
2023-11-15T12:26:20.195Z,19.9
2023-11-15T12:31:21.055Z,19.9
2023-11-15T12:36:24.696Z,19.9
2023-11-15T12:41:28.264Z,19.9
2023-11-15T12:46:28.733Z,19.9
2023-11-15T12:51:32.228Z,19.9
2023-11-15T12:56:32.710Z,19.9
2023-11-15T13:01:36.579Z,19.9
2023-11-15T13:06:36.916Z,20
2023-11-15T13:11:37.665Z,20.1
2023-11-15T13:16:38.583Z,20.2
2023-11-15T13:21:39.388Z,20.2
2023-11-15T13:26:40.489Z,20.3
2023-11-15T13:31:45.905Z,20.3
2023-11-15T13:36:49.005Z,20.3
2023-11-15T13:41:49.298Z,20.4
2023-11-15T13:46:53.061Z,20.4
2023-11-15T13:51:53.578Z,20.4
2023-11-15T13:56:58.172Z,20.4
2023-11-15T14:01:58.611Z,20.4
2023-11-15T14:06:59.191Z,20.4
2023-11-15T14:12:00.820Z,20.4
2023-11-15T14:17:03.505Z,20.4
2023-11-15T14:22:06.452Z,20.5
2023-11-15T14:27:06.899Z,20.5
2023-11-15T14:32:10.775Z,20.5
2023-11-15T14:37:11.374Z,20.5
2023-11-15T14:42:12.204Z,20.4
2023-11-15T14:47:16.729Z,20.5
2023-11-15T14:52:17.075Z,20.4
2023-11-15T14:57:17.803Z,20.4
2023-11-15T15:02:18.748Z,20.5
2023-11-15T15:07:19.586Z,20.5
2023-11-15T15:12:23.322Z,20.5
2023-11-15T15:17:25.521Z,20.5
2023-11-15T15:22:24.527Z,20.5
2023-11-15T15:27:25.357Z,20.5
2023-11-15T15:32:26.255Z,20.5
2023-11-15T15:37:29.972Z,20.5
2023-11-15T15:42:30.448Z,20.5
2023-11-15T15:47:31.374Z,20.5
2023-11-15T15:52:32.428Z,20.5
2023-11-15T15:57:36.005Z,20.5
2023-11-15T16:02:39.313Z,20.5
2023-11-15T16:07:39.677Z,20.6
2023-11-15T16:12:40.732Z,20.6
2023-11-15T16:17:41.678Z,20.6
2023-11-15T16:22:42.836Z,20.6
2023-11-15T16:27:46.432Z,20.6
2023-11-15T16:32:46.853Z,20.6
2023-11-15T16:37:50.490Z,20.6
2023-11-15T16:42:50.646Z,20.6
2023-11-15T16:47:54.666Z,20.6
2023-11-15T16:52:58.015Z,20.6
2023-11-15T16:57:58.826Z,20.6
2023-11-15T17:02:59.483Z,20.6
2023-11-15T17:08:00.357Z,20.6
2023-11-15T17:13:04.310Z,20.7
2023-11-15T17:18:04.880Z,20.6
2023-11-15T17:23:05.846Z,20.6
2023-11-15T17:28:06.969Z,20.6
2023-11-15T17:33:08.245Z,20.7
2023-11-15T17:38:09.192Z,20.6
2023-11-15T17:43:20.594Z,20.6
2023-11-15T17:48:35.394Z,20.6
2023-11-15T17:53:34.015Z,20.6
2023-11-15T17:58:35.274Z,20.6
2023-11-15T18:03:39.039Z,20.6
2023-11-15T18:08:39.361Z,20.6
2023-11-15T18:13:43.145Z,20.6
2023-11-15T18:18:47.177Z,20.6
2023-11-15T18:23:50.185Z,20.6
2023-11-15T18:28:52.982Z,20.6
2023-11-15T18:33:53.470Z,20.5
2023-11-15T18:38:57.088Z,20.5
2023-11-15T18:44:00.518Z,20.5
2023-11-15T18:49:00.466Z,20.4
2023-11-15T18:54:04.186Z,20.4
2023-11-15T18:59:07.216Z,20.4
2023-11-15T19:04:10.619Z,20.3
2023-11-15T19:09:26.083Z,20.2
2023-11-15T19:14:27.732Z,20.2
2023-11-15T19:19:27.873Z,20.2
2023-11-15T19:24:31.619Z,20.1
2023-11-15T19:29:34.899Z,20.1
2023-11-15T19:34:35.953Z,20.1
2023-11-15T19:39:39.713Z,20.1
2023-11-15T19:44:40.156Z,20.1
2023-11-15T19:49:43.692Z,20.1
2023-11-15T19:54:44.039Z,20.1
2023-11-15T19:59:44.723Z,20
2023-11-15T20:04:45.530Z,20
2023-11-15T20:09:49.264Z,20
2023-11-15T20:14:49.688Z,20
2023-11-15T20:19:50.723Z,20
2023-11-15T20:24:54.370Z,20
2023-11-15T20:29:57.537Z,19.9
2023-11-15T20:35:00.762Z,20
2023-11-15T20:40:03.827Z,20
2023-11-15T20:45:04.283Z,20
2023-11-15T20:50:05.047Z,19.9
2023-11-15T20:55:05.978Z,20
2023-11-15T21:00:07.023Z,19.9
2023-11-15T21:05:07.968Z,20
2023-11-15T21:10:08.922Z,19.9
2023-11-15T21:15:10.057Z,19.9
2023-11-15T21:20:11.144Z,19.9
2023-11-15T21:25:14.884Z,19.9
2023-11-15T21:30:15.482Z,19.9
2023-11-15T21:35:16.522Z,19.9
2023-11-15T21:40:17.178Z,19.8
2023-11-15T21:45:21.477Z,19.8
2023-11-15T21:50:21.494Z,19.8
2023-11-15T21:55:22.326Z,19.8
2023-11-15T22:00:23.277Z,19.8
2023-11-15T22:05:27.121Z,19.8
2023-11-15T22:10:30.363Z,19.8
2023-11-15T22:15:33.600Z,19.8
2023-11-15T22:20:36.519Z,19.8
2023-11-15T22:25:36.859Z,19.8
2023-11-15T22:30:40.721Z,19.8
2023-11-15T22:35:40.996Z,19.8
2023-11-15T22:40:42.033Z,19.7
2023-11-15T22:45:45.689Z,19.8
2023-11-15T22:50:46.105Z,19.8
2023-11-15T22:55:49.718Z,19.7
2023-11-15T23:00:53.069Z,19.7
2023-11-15T23:05:53.608Z,19.8
2023-11-15T23:10:57.290Z,19.8
2023-11-15T23:15:57.848Z,19.7
2023-11-15T23:20:58.905Z,19.8
2023-11-15T23:25:59.829Z,19.7
2023-11-15T23:31:00.750Z,19.7
2023-11-15T23:36:04.564Z,19.7
2023-11-15T23:41:05.126Z,19.7
2023-11-15T23:46:05.967Z,19.7
2023-11-15T23:51:06.686Z,19.7
2023-11-15T23:56:10.612Z,19.7
